Weather observations for the past three days for
East Hampton Town Airport
Imperial (Metric)
Date Time (edt) Wind (mph) Vis. (mi.) Weather Sky Cond. Temperature (ºF) Relative Humidity Wind Chill (°F) Heat Index (°F) Pressure Precipitation (in)
Air Dwpt 6 hour altimeter (in) sea level (mb) 1 hr 3 hr 6 hr
Max. Min.
04 15:35 SW 16 G 22 10.00 Fair CLR 59 40.5 50% 29.87 0.0
04 15:15 SW 18 G 24 10.00 Fair CLR 57.9 39.9 51% 29.88 0.0
04 14:55 SW 15 G 26 10.00 Fair CLR 59 40.8 51% 29.88 0.0
04 14:35 SW 15 G 24 10.00 Fair CLR 58.8 41.2 52% 29.89 0.0
04 14:15 SW 20 G 26 10.00 Fair CLR 59 41.2 52% 29.89 0.0
04 13:55 SW 18 G 26 10.00 Fair CLR 58.5 40.3 60.1 54.5 51% 29.89 0.0
04 13:35 SW 15 G 22 10.00 Fair CLR 59 42.4 54% 29.9 0.0
04 13:15 SW 16 G 24 10.00 Fair CLR 58.5 42.6 56% 29.9 0.0
04 12:55 SW 15 G 22 10.00 Fair CLR 58.5 42.6 56% 29.91 0.0
04 12:35 SW 15 G 20 10.00 Fair CLR 58.6 42.4 55% 29.91 0.0
04 12:15 SW 16 G 22 10.00 Fair CLR 58.1 41.2 54% 29.91 0.0
04 11:55 SW 13 G 20 10.00 Fair CLR 59.9 41 50% 29.92 0.0
04 11:35 SW 13 G 22 10.00 Fair CLR 58.5 41 52% 29.93 0.0
04 11:15 SW 10 G 20 10.00 Fair CLR 59.4 40.6 50% 29.93 0.0
04 10:55 SW 12 G 18 10.00 Fair CLR 59.5 38.8 46% 29.93 0.0
04 10:35 SW 14 10.00 Fair CLR 58.5 40.1 51% 29.93 0.0
04 10:15 SW 13 G 20 10.00 Fair CLR 59 39 48% 29.93 0.0
04 09:55 SW 9 G 20 10.00 Fair CLR 58.8 38.5 47% 29.94 0.0
04 09:35 SW 12 G 16 10.00 Fair CLR 57.9 38.8 49% 29.94 0.0
04 09:15 SW 14 G 17 10.00 Fair CLR 58.1 36.5 45% 29.94 0.0
04 08:55 SW 12 G 18 10.00 Fair CLR 57.6 36.3 45% 29.94 0.0
04 08:35 SW 13 G 18 10.00 Fair CLR 56.5 36 46% 29.94 0.0
04 07:55 SW 12 10.00 Fair CLR 54 37.6 54 34 54% 29.94 0.0
04 07:35 SW 12 10.00 Fair CLR 52.7 37.9 57% 29.94 0.0
04 07:15 SW 8 10.00 Fair CLR 51.1 38.8 63% 29.94 0.0
04 06:55 SW 5 10.00 Fair CLR 49.3 39.2 68% 48 29.94 0.0
04 06:35 SW 8 10.00 Fair CLR 47.5 38.5 71% 44 29.94 0.0
04 06:15 SW 7 10.00 Fair CLR 45.9 37.9 74% 43 29.94 0.0
04 05:55 SW 7 10.00 Fair CLR 44.4 37.4 76% 41 29.93 0.0
04 05:35 SW 3 10.00 Fair CLR 39.6 32.9 77% 29.92 0.0
04 05:15 Calm 10.00 Fair CLR 38.8 32 77% 29.92 0.0
04 04:55 Calm 10.00 Partly Cloudy SCT085 41.4 32.7 71% 29.92 0.0
04 04:35 Calm 10.00 Mostly Cloudy BKN085 39.2 33.1 79% 29.92 0.0
04 04:15 Calm 10.00 Overcast OVC085 40.3 32.9 75% 29.92 0.0
04 03:55 SW 5 10.00 Overcast OVC085 42.6 36 77% 40 29.91 0.0
04 03:35 SW 6 10.00 Mostly Cloudy BKN085 39.4 33.4 79% 36 29.91 0.0
04 03:15 SW 3 10.00 Partly Cloudy SCT095 36.5 30.7 80% 29.91 0.0
04 02:55 Calm 10.00 Partly Cloudy SCT095 39.2 33.3 79% 29.9 0.0
04 02:35 SW 3 10.00 Fair CLR 34.3 29.5 82% 29.9 0.0
04 02:15 Calm 10.00 Fair CLR 35.1 28.6 77% 29.9 0.0
04 01:55 Calm 10.00 Fair CLR 33.8 29.7 47.3 33.3 85% 29.89 0.0
04 01:35 Calm 10.00 Fair CLR 34.7 29.1 80% 29.89 0.0
04 01:15 Calm 10.00 Fair CLR 33.6 28.2 81% 29.89 0.0
04 00:55 Calm 10.00 Fair CLR 35.1 29.3 80% 29.89 0.0
04 00:35 Calm 10.00 Fair CLR 34.5 29.1 81% 29.9 0.0
04 00:15 Calm 10.00 Fair CLR 35.4 28.6 76% 29.9 0.0
03 23:55 Calm 10.00 Fair CLR 34.9 28.4 77% 29.89 0.0
03 23:35 Calm 10.00 Fair CLR 35.6 27.1 71% 29.89 0.0
03 23:15 Calm 10.00 Fair CLR 36.1 27 69% 29.89 0.0
03 22:55 Calm 10.00 Fair CLR 36.5 25.9 65% 29.89 0.0
03 22:35 Calm 10.00 Fair CLR 36.3 25.7 65% 29.89 0.0
03 22:15 Calm 10.00 Fair CLR 37.6 25.5 62% 29.89 0.0
03 21:55 Calm 10.00 Partly Cloudy SCT090 38.7 25.3 59% 29.89 0.0
03 21:35 Calm 10.00 Fair CLR 38.7 25 58% 29.88 0.0
03 21:15 Calm 10.00 Fair CLR 39.4 25.3 57% 29.87 0.0
03 20:55 Calm 10.00 Fair CLR 40.8 25.2 54% 29.86 0.0
03 20:35 Calm 10.00 Fair CLR 43 24.8 49% 29.86 0.0
03 20:15 Calm 10.00 Fair CLR 46.4 25.3 44% 29.85 0.0
03 19:55 Calm 10.00 Fair CLR 48 25 55.8 48 41% 29.84 0.0
03 19:35 Calm 10.00 Fair CLR 51.8 23.2 33% 29.84 0.0
03 19:15 NW 5 10.00 Fair CLR 52.9 22.3 30% 29.83 0.0
03 18:55 NW 8 10.00 Fair CLR 53.6 20.8 28% 29.83 0.0
03 18:35 NW 8 G 16 10.00 Fair CLR 54 21.4 28% 29.82 0.0
03 18:15 NW 12 G 17 10.00 Fair CLR 54.1 21.6 28% 29.82 0.0
03 17:55 NW 15 G 22 10.00 Fair CLR 54.5 20.8 27% 29.81 0.0
03 17:35 NW 15 G 22 10.00 Fair CLR 54.5 20.7 27% 29.81 0.0
03 17:15 W 15 G 25 10.00 Fair CLR 54.5 20.3 26% 29.81 0.0
03 16:55 W 12 G 26 10.00 Fair CLR 54.1 19.8 26% 29.8 0.0
03 16:35 W 16 G 30 10.00 Fair CLR 54.7 19.2 25% 29.79 0.0
03 16:15 W 16 G 24 10.00 Fair CLR 54.9 19.6 25% 29.79 0.0
03 15:55 NW 17 G 24 10.00 Partly Cloudy SCT075 54.3 20.7 27% 29.79 0.0
03 15:35 NW 14 G 21 10.00 Partly Cloudy SCT075 54.1 19.9 26% 29.79 0.0
03 15:15 NW 15 G 26 10.00 Fair CLR 53.8 19.4 26% 29.79 0.0
03 14:55 NW 13 G 30 10.00 Fair CLR 54 20.7 27% 29.79 0.0
03 14:35 NW 20 G 33 10.00 Partly Cloudy SCT080 54.1 23 30% 29.79 0.0
03 14:15 W 18 G 25 10.00 Partly Cloudy SCT080 54.1 23.4 30% 29.79 0.0
03 13:55 W 17 G 28 10.00 Partly Cloudy SCT080 53.2 23.4 54 45.5 31% 29.79 0.0
03 13:35 NW 21 G 26 10.00 Mostly Cloudy and Breezy BKN080 53.2 22.1 30% 29.78 0.0
03 13:15 NW 17 G 30 10.00 Overcast OVC080 52.9 22.1 30% 29.79 0.0
03 12:55 NW 18 G 26 10.00 Overcast SCT070 OVC080 52.2 25.5 36% 29.79 0.0
03 12:35 W 16 G 25 10.00 Overcast SCT055 OVC070 50.9 26.2 38% 29.79 0.0
03 12:15 W 17 G 25 10.00 Partly Cloudy SCT055 SCT080 52.7 23.5 32% 29.79 0.0
03 11:55 NW 18 G 29 10.00 Partly Cloudy SCT080 52 27 38% 29.79 0.0
03 11:35 NW 16 G 24 10.00 Partly Cloudy SCT080 52.7 26.4 36% 29.78 0.0
03 11:15 NW 14 G 28 10.00 Fair CLR 51.4 27.1 39% 29.78 0.0
03 10:55 NW 14 G 28 10.00 Fair CLR 50.9 26.8 39% 29.78 0.0
03 10:35 NW 18 G 26 10.00 Fair CLR 51.1 26.8 39% 29.79 0.0
03 10:15 NW 14 G 23 10.00 Fair CLR 50.7 27.5 41% 29.78 0.0
03 09:55 NW 14 G 24 10.00 Fair CLR 49.6 27 41% 45 29.78 0.0
03 09:35 W 14 G 22 10.00 Fair CLR 47.8 28.2 47% 43 29.79 0.0
03 09:15 NW 13 G 23 10.00 Fair CLR 46.9 28 48% 42 29.79 0.0
03 08:55 NW 10 G 20 10.00 Fair CLR 46.8 28 48% 42 29.79 0.0
03 08:35 NW 14 G 21 10.00 Fair CLR 45.7 27.5 49% 40 29.79 0.0
03 08:15 NW 12 G 21 10.00 Fair CLR 45.7 28 50% 41 29.79 0.0
03 07:55 NW 12 G 18 10.00 Fair CLR 45.3 27 47.5 42.4 49% 40 29.79 0.0
03 07:35 NW 10 G 18 10.00 Fair CLR 44.8 26.8 49% 40 29.79 0.0
03 07:15 NW 10 G 17 10.00 Fair CLR 44.2 26.2 49% 39 29.79 0.0
03 06:35 NW 8 10.00 Fair CLR 43 25.5 50% 39 29.78 0.0
03 06:15 NW 8 10.00 Fair CLR 42.6 25.3 51% 38 29.78 0.0
03 05:55 NW 6 G 18 10.00 Fair CLR 43 25.3 50% 40 29.78 0.0
03 05:35 NW 6 10.00 Fair CLR 43.3 25.3 49% 40 29.77 0.0
03 05:15 N 12 G 16 10.00 Partly Cloudy SCT090 43.9 24.8 47% 38 29.77 0.0
03 04:55 NW 8 G 17 10.00 Partly Cloudy SCT090 44.6 24.6 45% 41 29.77 0.0
03 04:35 N 13 G 17 10.00 Partly Cloudy SCT090 44.8 24.6 45% 39 29.78 0.0
03 04:15 N 12 G 16 10.00 Partly Cloudy SCT090 SCT110 45.5 23.7 42% 40 29.78 0.0
03 03:55 N 13 10.00 Partly Cloudy SCT080 SCT110 45.9 23.5 41% 41 29.78 0.0
03 03:35 N 14 G 22 10.00 Mostly Cloudy BKN080 BKN110 46.4 22.5 39% 41 29.78 0.0
03 03:15 N 10 G 25 10.00 Mostly Cloudy BKN080 BKN120 46.6 23.5 40% 42 29.78 0.0
03 02:55 N 13 G 17 10.00 Mostly Cloudy BKN120 46.8 25.5 43% 42 29.79 0.0
03 02:35 N 8 G 16 10.00 Mostly Cloudy SCT075 BKN120 47.3 25.9 43% 44 29.79 0.0
03 02:15 N 10 10.00 Overcast OVC075 47.3 27.3 46% 43 29.8 0.0
03 01:55 N 6 10.00 Overcast OVC075 47.3 32 48.2 43.9 55% 45 29.8 0.0
03 01:35 N 8 10.00 Overcast OVC065 47.3 33.6 59% 44 29.81 0.0
03 01:15 N 6 10.00 Overcast OVC065 47.5 35.6 64% 45 29.82 0.0
03 00:55 N 3 10.00 Overcast OVC065 47.3 39.9 76% 29.82 0.0
03 00:35 N 7 10.00 Mostly Cloudy BKN080 BKN120 47.3 43.7 87% 44 29.83 0.0
03 00:15 N 5 10.00 Mostly Cloudy BKN065 BKN120 46.8 45.1 94% 45 29.83 0.0
02 23:55 NW 3 10.00 Overcast SCT032 SCT038 OVC065 45.1 44.6 98% 29.83 0.0
02 23:35 Calm 10.00 Overcast SCT032 OVC048 45 44.1 97% 29.83 0.0
02 23:15 Calm 10.00 Overcast BKN048 OVC050 44.2 43.5 97% 29.83 0.0
02 22:55 Calm 10.00 Mostly Cloudy BKN050 44.6 43.9 97% 29.84 0.0
02 22:35 Calm 10.00 Mostly Cloudy BKN050 44.4 43.7 97% 29.84 0.0
02 22:15 Calm 10.00 Partly Cloudy SCT050 44.2 43.3 97% 29.84 0.0
02 21:55 Calm 10.00 Fair CLR 44.8 44.1 97% 29.84 0.0
02 21:35 Calm 10.00 Fair CLR 45.5 44.6 97% 29.84 0.0
02 21:15 Calm 10.00 Fair CLR 46.4 44.8 94% 29.84 0.0
02 20:55 Calm 10.00 Fair CLR 46.8 44.8 93% 29.84 0.0
02 20:35 Calm 10.00 Fair CLR 47.1 44.4 90% 29.84 0.0
02 20:15 Calm 10.00 Fair CLR 47.7 44.6 89% 29.83 0.0
02 19:55 Calm 10.00 Fair CLR 48.2 44.8 49.5 48.2 88% 29.83 0.0
02 19:35 Calm 10.00 Fair CLR 48.7 44.8 86% 29.83 0.0
02 19:15 Calm 10.00 Mostly Cloudy BKN085 49.1 44.8 85% 29.83 0.0
02 18:55 Calm 10.00 Mostly Cloudy SCT060 BKN085 49.3 45.1 86% 29.83 0.0
02 18:35 SW 3 10.00 Overcast BKN060 OVC085 49.5 45 85% 29.83 0.0
02 18:15 Calm 10.00 Overcast OVC060 49.3 45.3 86% 29.83 0.0
02 17:55 Calm 10.00 Overcast OVC050 49.1 45.7 88% 29.83 0.0
02 17:35 Calm 10.00 Overcast SCT044 OVC050 49.1 45.9 89% 29.83 0.0
02 17:15 Calm 10.00 Overcast BKN044 OVC050 49.1 45.3 87% 29.84 0.0
02 16:55 Calm 10.00 Overcast OVC044 49.3 45.7 87% 29.83 0.0
02 16:35 S 3 10.00 Overcast OVC044 49.1 46 89% 29.83 0.0
02 16:15 Calm 10.00 Overcast OVC044 49.1 46.4 90% 29.84 0.0
02 15:55 Calm 10.00 Overcast SCT005 BKN044 OVC070 49.1 46.4 90% 29.85 0.0
02 15:35 Calm 10.00 Overcast BKN005 BKN044 OVC070 48.7 46.8 93% 29.85 0.0
02 15:15 Calm 10.00 Overcast SCT005 OVC070 48.6 46.9 94% 29.86 0.0
02 14:55 S 5 10.00 Light Drizzle BKN005 OVC070 48.2 46.4 94% 47 29.86 0.0
02 14:35 S 6 10.00 Light Rain BKN005 OVC065 48.4 46.2 92% 46 29.87 0.0
02 14:15 S 3 10.00 Light Drizzle BKN007 OVC065 48.7 45.9 90% 29.87 0.0
02 13:55 S 5 10.00 Light Rain BKN007 BKN010 OVC065 49.1 45.5 52.3 49.1 87% 48 29.87 0.0
02 13:35 Calm 10.00 Overcast BKN009 BKN065 OVC080 49.6 45.5 86% 29.88 0.0
02 13:15 S 3 10.00 Light Drizzle BKN009 OVC080 49.8 45.7 86% 29.87 0.0
02 12:55 S 5 10.00 Overcast OVC009 49.6 45.7 86% 48 29.88 0.0
02 12:35 S 3 10.00 Light Drizzle OVC009 49.5 45.5 86% 29.88 0.0
02 12:15 SW 6 10.00 Light Rain OVC009 49.1 45 86% 47 29.88 0.0
02 11:55 SW 8 10.00 Overcast BKN009 OVC060 49.1 44.6 85% 46 29.88 0.0
02 11:35 SW 9 10.00 Light Rain SCT009 BKN044 OVC060 49.3 44.1 82% 46 29.89 0.0
02 11:15 SW 7 10.00 Overcast OVC044 49.6 43.7 80% 47 29.89 0.0
02 10:55 S 6 10.00 Overcast SCT019 OVC044 49.3 43.7 81% 47 29.89 0.0
02 10:35 S 7 10.00 Overcast BKN017 OVC048 49.6 43.5 80% 47 29.9 0.0
02 10:15 S 8 10.00 Overcast BKN015 BKN050 OVC080 50.4 43.7 78% 29.9 0.0
02 09:55 S 8 10.00 Overcast SCT013 OVC080 51.1 42.8 73% 29.9 0.0
02 09:35 S 9 10.00 Mostly Cloudy SCT013 BKN080 50.7 42.6 74% 29.9 0.0
02 09:15 S 7 10.00 Mostly Cloudy SCT070 BKN090 52.3 43.3 72% 29.89 0.0
02 08:55 S 5 10.00 Overcast SCT070 OVC090 51.1 43 74% 29.89 0.0
02 08:35 SW 3 10.00 Mostly Cloudy BKN090 BKN120 51.4 42.6 72% 29.91 0.0
02 08:15 SW 7 10.00 Mostly Cloudy SCT100 BKN120 50.5 42.3 73% 29.91 0.0
02 07:55 SW 5 10.00 Mostly Cloudy BKN110 50 42.4 50 46.2 75% 49 29.91 0.0
02 07:35 SW 7 10.00 Mostly Cloudy BKN110 49.3 42.3 77% 47 29.9 0.0
02 07:15 SW 7 10.00 Overcast OVC110 48.7 42.1 78% 46 29.9 0.0
02 06:55 SW 8 10.00 Mostly Cloudy BKN110 48.4 42.6 81% 45 29.89 0.0
02 06:35 SW 6 10.00 Mostly Cloudy BKN120 47.7 42.4 82% 45 29.89 0.0
02 06:15 SW 7 10.00 Fair CLR 47.3 42.4 83% 44 29.89 0.0
02 05:55 SW 6 10.00 Fair CLR 46.9 42.4 84% 45 29.89 0.0
02 05:35 SW 6 10.00 Partly Cloudy SCT110 46.6 42.8 87% 44 29.9 0.0
02 05:15 SW 5 10.00 Mostly Cloudy SCT085 BKN110 46.6 42.4 86% 45 29.89 0.0
02 04:55 S 6 10.00 Partly Cloudy SCT085 46.6 42.1 84% 44 29.89 0.0
02 04:35 SW 5 10.00 Fair CLR 46.4 41.7 84% 45 29.89 0.0
02 04:15 SW 7 10.00 Fair CLR 46.6 41.9 84% 44 29.89 0.0
02 03:55 SW 7 10.00 Fair CLR 46.6 41.5 83% 44 29.89 0.0
02 03:15 SW 8 10.00 Mostly Cloudy BKN120 47.5 41 78% 44 29.89 0.0
02 02:55 SW 10 10.00 Mostly Cloudy BKN110 47.7 40.5 76% 44 29.89 0.0
02 02:35 S 8 10.00 Partly Cloudy SCT120 47.5 39.9 75% 44 29.9 0.0
02 02:15 SW 10 10.00 Fair CLR 47.3 39.2 74% 43 29.9 0.0
02 01:55 SW 7 10.00 Partly Cloudy SCT100 SCT120 47.8 38.7 49.5 47.3 71% 45 29.9 0.0
02 01:35 SW 8 10.00 Partly Cloudy SCT110 48.2 39.2 71% 45 29.91 0.0
02 01:15 SW 7 10.00 Partly Cloudy SCT110 48.2 38.5 69% 46 29.9 0.0
02 00:55 SW 6 10.00 Partly Cloudy SCT120 48.2 39.4 72% 46 29.91 0.0
02 00:35 SW 7 10.00 Partly Cloudy SCT120 47.8 39.4 73% 45 29.92 0.0
02 00:15 SW 7 10.00 Partly Cloudy SCT120 48 38.8 71% 45 29.91 0.0
01 23:55 SW 9 10.00 Fair CLR 47.7 39.4 73% 44 29.91 0.0
01 23:35 SW 9 10.00 Fair CLR 48.2 39 71% 45 29.92 0.0
01 23:15 SW 10 10.00 Fair CLR 48.4 38.7 69% 44 29.92 0.0
01 22:55 SW 9 10.00 Fair CLR 48 39.4 72% 44 29.92 0.0
01 22:35 SW 6 10.00 Fair CLR 47.8 39.4 73% 46 29.91 0.0
01 22:15 SW 6 10.00 Fair CLR 47.7 39 72% 45 29.91 0.0
01 21:55 SW 5 10.00 Fair CLR 48 38.3 69% 47 29.91 0.0
01 21:35 SW 6 10.00 Fair CLR 48.2 37.6 67% 46 29.91 0.0
01 21:15 SW 7 10.00 Fair CLR 48.4 37.4 66% 46 29.91 0.0
01 20:55 SW 8 10.00 Fair CLR 48.7 36.7 63% 46 29.91 0.0
01 20:35 SW 9 10.00 Fair CLR 48.9 35.6 60% 45 29.9 0.0
01 20:15 SW 8 10.00 Fair CLR 49.1 35.8 60% 46 29.89 0.0
01 19:55 SW 10 10.00 Fair CLR 49.6 35.8 60.1 49.6 59% 46 29.88 0.0
01 19:35 SW 10 G 18 10.00 Fair CLR 50.2 35.6 57% 29.87 0.0
01 19:15 SW 10 10.00 Fair CLR 51.1 35.6 56% 29.87 0.0
01 18:55 SW 15 G 20 10.00 Fair CLR 52.2 34.9 52% 29.87 0.0
01 18:35 SW 9 G 17 10.00 Fair CLR 52.9 34.7 50% 29.86 0.0
01 18:15 SW 13 G 20 10.00 Fair CLR 52.7 35.8 53% 29.86 0.0
01 17:55 SW 13 G 17 10.00 Fair CLR 54.1 35.1 49% 29.86 0.0
01 17:35 SW 14 10.00 Fair CLR 55.6 32.5 42% 29.86 0.0
01 17:15 SW 10 G 17 10.00 Fair CLR 56.3 32.5 41% 29.85 0.0
01 16:55 SW 9 10.00 Fair CLR 56.3 32.5 41% 29.85 0.0
01 16:35 SW 14 G 18 10.00 Fair CLR 55.6 33.1 43% 29.85 0.0
01 16:15 SW 17 G 21 10.00 Fair CLR 55 33.8 45% 29.85 0.0
01 15:55 SW 15 G 21 10.00 Fair CLR 55.6 33.3 43% 29.85 0.0
Date Time (edt) Wind (mph) Vis. (mi.) Weather Sky Cond. Air Dwpt Max. Min. Relative Humidity Wind Chill (°F) Heat Index (°F) altimeter (in) sea level (mb) 1 hr 3 hr 6 hr
6 hour
Temperature (ºF) Pressure Precipitation (in)